sensor_id;sensor_type;location;lat;lon;timestamp;temperature;humidity
51273;DHT22;37345;59.828;30.328;2022-07-31T00:00:44;14.30;99.90
51273;DHT22;37345;59.828;30.328;2022-07-31T00:03:10;14.30;99.90
51273;DHT22;37345;59.828;30.328;2022-07-31T00:05:36;14.20;99.90
51273;DHT22;37345;59.828;30.328;2022-07-31T00:08:03;14.20;99.90
51273;DHT22;37345;59.828;30.328;2022-07-31T00:10:29;14.20;99.90
51273;DHT22;37345;59.828;30.328;2022-07-31T00:12:55;14.10;99.90
51273;DHT22;37345;59.828;30.328;2022-07-31T00:15:20;14.20;99.90
51273;DHT22;37345;59.828;30.328;2022-07-31T00:17:47;14.10;99.90
51273;DHT22;37345;59.828;30.328;2022-07-31T00:20:15;14.10;99.90
51273;DHT22;37345;59.828;30.328;2022-07-31T00:22:42;14.10;99.90
51273;DHT22;37345;59.828;30.328;2022-07-31T00:25:13;14.10;99.90
51273;DHT22;37345;59.828;30.328;2022-07-31T00:27:39;14.00;99.90
51273;DHT22;37345;59.828;30.328;2022-07-31T00:30:06;14.00;99.90
51273;DHT22;37345;59.828;30.328;2022-07-31T00:32:31;14.00;99.90
51273;DHT22;37345;59.828;30.328;2022-07-31T00:34:57;14.00;99.90
51273;DHT22;37345;59.828;30.328;2022-07-31T00:37:23;13.90;99.90
51273;DHT22;37345;59.828;30.328;2022-07-31T00:39:49;13.90;99.90
51273;DHT22;37345;59.828;30.328;2022-07-31T00:42:19;13.80;99.90
51273;DHT22;37345;59.828;30.328;2022-07-31T00:44:46;13.80;99.90
51273;DHT22;37345;59.828;30.328;2022-07-31T00:47:12;13.80;99.90
51273;DHT22;37345;59.828;30.328;2022-07-31T00:49:38;13.80;99.90
51273;DHT22;37345;59.828;30.328;2022-07-31T00:52:04;13.80;99.90
51273;DHT22;37345;59.828;30.328;2022-07-31T00:54:31;13.80;99.90
51273;DHT22;37345;59.828;30.328;2022-07-31T00:56:57;13.70;99.90
51273;DHT22;37345;59.828;30.328;2022-07-31T00:59:22;13.80;99.90
51273;DHT22;37345;59.828;30.328;2022-07-31T01:01:51;13.80;99.90
51273;DHT22;37345;59.828;30.328;2022-07-31T01:04:17;13.80;99.90
51273;DHT22;37345;59.828;30.328;2022-07-31T01:06:44;13.80;99.90
51273;DHT22;37345;59.828;30.328;2022-07-31T01:09:10;13.80;99.90
51273;DHT22;37345;59.828;30.328;2022-07-31T01:11:59;13.80;99.90
51273;DHT22;37345;59.828;30.328;2022-07-31T01:14:33;13.80;99.90
51273;DHT22;37345;59.828;30.328;2022-07-31T01:17:00;13.90;99.90
51273;DHT22;37345;59.828;30.328;2022-07-31T01:19:38;13.80;99.90
51273;DHT22;37345;59.828;30.328;2022-07-31T01:27:57;14.00;99.90
51273;DHT22;37345;59.828;30.328;2022-07-31T01:30:31;14.10;99.90
51273;DHT22;37345;59.828;30.328;2022-07-31T01:33:04;14.10;99.90
51273;DHT22;37345;59.828;30.328;2022-07-31T01:35:37;14.10;99.90
51273;DHT22;37345;59.828;30.328;2022-07-31T01:38:12;14.30;99.90
51273;DHT22;37345;59.828;30.328;2022-07-31T01:40:44;14.00;99.90
51273;DHT22;37345;59.828;30.328;2022-07-31T01:43:18;14.10;99.90
51273;DHT22;37345;59.828;30.328;2022-07-31T01:45:48;14.10;99.90
51273;DHT22;37345;59.828;30.328;2022-07-31T01:48:15;14.10;99.90
51273;DHT22;37345;59.828;30.328;2022-07-31T01:50:46;14.10;99.90
51273;DHT22;37345;59.828;30.328;2022-07-31T01:53:16;14.20;99.90
51273;DHT22;37345;59.828;30.328;2022-07-31T01:55:44;14.20;99.90
51273;DHT22;37345;59.828;30.328;2022-07-31T01:58:11;14.20;99.90
51273;DHT22;37345;59.828;30.328;2022-07-31T02:00:39;14.20;99.90
51273;DHT22;37345;59.828;30.328;2022-07-31T02:03:07;14.20;99.90
51273;DHT22;37345;59.828;30.328;2022-07-31T02:05:34;14.20;99.90
51273;DHT22;37345;59.828;30.328;2022-07-31T02:08:02;14.20;99.90
51273;DHT22;37345;59.828;30.328;2022-07-31T02:10:30;14.30;99.90
51273;DHT22;37345;59.828;30.328;2022-07-31T02:12:57;14.30;99.90
51273;DHT22;37345;59.828;30.328;2022-07-31T02:15:24;14.30;99.90
51273;DHT22;37345;59.828;30.328;2022-07-31T02:17:51;14.30;99.90
51273;DHT22;37345;59.828;30.328;2022-07-31T02:20:19;14.30;99.90
51273;DHT22;37345;59.828;30.328;2022-07-31T02:22:46;14.30;99.90
51273;DHT22;37345;59.828;30.328;2022-07-31T02:25:12;14.30;99.90
51273;DHT22;37345;59.828;30.328;2022-07-31T02:27:38;14.30;99.90
51273;DHT22;37345;59.828;30.328;2022-07-31T02:30:06;14.30;99.90
51273;DHT22;37345;59.828;30.328;2022-07-31T02:32:32;14.20;99.90
51273;DHT22;37345;59.828;30.328;2022-07-31T02:35:00;14.30;99.90
51273;DHT22;37345;59.828;30.328;2022-07-31T02:37:28;14.30;99.90
51273;DHT22;37345;59.828;30.328;2022-07-31T02:39:56;14.10;99.90
51273;DHT22;37345;59.828;30.328;2022-07-31T02:42:23;14.20;99.90
51273;DHT22;37345;59.828;30.328;2022-07-31T02:44:50;14.30;99.90
51273;DHT22;37345;59.828;30.328;2022-07-31T02:47:17;14.20;99.90
51273;DHT22;37345;59.828;30.328;2022-07-31T02:49:43;14.10;99.90
51273;DHT22;37345;59.828;30.328;2022-07-31T02:52:10;13.90;99.90
51273;DHT22;37345;59.828;30.328;2022-07-31T02:54:38;14.00;99.90
51273;DHT22;37345;59.828;30.328;2022-07-31T02:57:05;13.90;99.90
51273;DHT22;37345;59.828;30.328;2022-07-31T02:59:38;14.00;99.90
51273;DHT22;37345;59.828;30.328;2022-07-31T03:02:05;14.00;99.90
51273;DHT22;37345;59.828;30.328;2022-07-31T03:04:31;13.90;99.90
51273;DHT22;37345;59.828;30.328;2022-07-31T03:06:58;14.00;99.90
51273;DHT22;37345;59.828;30.328;2022-07-31T03:09:25;14.10;99.90
51273;DHT22;37345;59.828;30.328;2022-07-31T03:11:51;14.10;99.90
51273;DHT22;37345;59.828;30.328;2022-07-31T03:14:17;14.20;99.90
51273;DHT22;37345;59.828;30.328;2022-07-31T03:16:46;14.20;99.90
51273;DHT22;37345;59.828;30.328;2022-07-31T03:19:13;14.30;99.90
51273;DHT22;37345;59.828;30.328;2022-07-31T03:21:39;14.30;99.90
51273;DHT22;37345;59.828;30.328;2022-07-31T03:24:06;14.30;99.90
51273;DHT22;37345;59.828;30.328;2022-07-31T03:26:44;14.30;99.90
51273;DHT22;37345;59.828;30.328;2022-07-31T03:29:10;14.40;99.90
51273;DHT22;37345;59.828;30.328;2022-07-31T03:31:36;14.50;99.90
51273;DHT22;37345;59.828;30.328;2022-07-31T03:34:02;14.70;99.90
51273;DHT22;37345;59.828;30.328;2022-07-31T03:36:28;14.80;99.90
51273;DHT22;37345;59.828;30.328;2022-07-31T03:38:56;16.00;99.90
51273;DHT22;37345;59.828;30.328;2022-07-31T03:41:22;17.80;99.90
51273;DHT22;37345;59.828;30.328;2022-07-31T03:43:48;18.90;99.90
51273;DHT22;37345;59.828;30.328;2022-07-31T03:46:19;18.60;99.90
51273;DHT22;37345;59.828;30.328;2022-07-31T03:48:45;17.60;99.90
51273;DHT22;37345;59.828;30.328;2022-07-31T03:51:12;17.10;99.90
51273;DHT22;37345;59.828;30.328;2022-07-31T03:53:38;16.70;99.90
51273;DHT22;37345;59.828;30.328;2022-07-31T03:56:05;16.20;99.90
51273;DHT22;37345;59.828;30.328;2022-07-31T03:58:32;16.00;99.90
51273;DHT22;37345;59.828;30.328;2022-07-31T04:00:58;16.10;99.90
51273;DHT22;37345;59.828;30.328;2022-07-31T04:03:29;17.70;99.90
51273;DHT22;37345;59.828;30.328;2022-07-31T04:05:55;19.50;99.90
51273;DHT22;37345;59.828;30.328;2022-07-31T04:08:21;18.90;99.90
51273;DHT22;37345;59.828;30.328;2022-07-31T04:10:47;17.90;99.90
51273;DHT22;37345;59.828;30.328;2022-07-31T04:13:13;17.20;99.90
51273;DHT22;37345;59.828;30.328;2022-07-31T04:15:39;16.80;99.90
51273;DHT22;37345;59.828;30.328;2022-07-31T04:18:05;16.80;99.90
51273;DHT22;37345;59.828;30.328;2022-07-31T04:20:30;16.90;99.90
51273;DHT22;37345;59.828;30.328;2022-07-31T04:22:56;17.20;99.90
51273;DHT22;37345;59.828;30.328;2022-07-31T04:25:22;18.60;99.90
51273;DHT22;37345;59.828;30.328;2022-07-31T04:27:48;20.00;99.90
51273;DHT22;37345;59.828;30.328;2022-07-31T04:30:14;21.10;99.90
51273;DHT22;37345;59.828;30.328;2022-07-31T04:32:39;20.90;99.90
51273;DHT22;37345;59.828;30.328;2022-07-31T04:35:06;19.80;99.90
51273;DHT22;37345;59.828;30.328;2022-07-31T04:37:32;18.80;99.90
51273;DHT22;37345;59.828;30.328;2022-07-31T04:39:58;18.30;99.90
51273;DHT22;37345;59.828;30.328;2022-07-31T04:42:24;17.80;99.90
51273;DHT22;37345;59.828;30.328;2022-07-31T04:44:49;17.60;99.90
51273;DHT22;37345;59.828;30.328;2022-07-31T04:47:16;17.80;99.90
51273;DHT22;37345;59.828;30.328;2022-07-31T04:49:42;17.80;99.90
51273;DHT22;37345;59.828;30.328;2022-07-31T04:52:08;17.80;99.90
51273;DHT22;37345;59.828;30.328;2022-07-31T04:54:34;18.90;99.90
51273;DHT22;37345;59.828;30.328;2022-07-31T04:57:00;20.50;99.90
51273;DHT22;37345;59.828;30.328;2022-07-31T04:59:25;20.70;99.90
51273;DHT22;37345;59.828;30.328;2022-07-31T05:01:51;21.10;99.90
51273;DHT22;37345;59.828;30.328;2022-07-31T05:04:18;21.70;99.90
51273;DHT22;37345;59.828;30.328;2022-07-31T05:06:49;21.70;99.90
51273;DHT22;37345;59.828;30.328;2022-07-31T05:09:17;22.20;99.90
51273;DHT22;37345;59.828;30.328;2022-07-31T05:11:43;22.30;99.90
51273;DHT22;37345;59.828;30.328;2022-07-31T05:14:12;22.10;99.90
51273;DHT22;37345;59.828;30.328;2022-07-31T05:16:38;22.50;99.90
51273;DHT22;37345;59.828;30.328;2022-07-31T05:19:05;23.00;99.90
51273;DHT22;37345;59.828;30.328;2022-07-31T05:21:31;23.30;99.90
51273;DHT22;37345;59.828;30.328;2022-07-31T05:23:58;22.30;99.90
51273;DHT22;37345;59.828;30.328;2022-07-31T05:26:25;21.50;99.90
51273;DHT22;37345;59.828;30.328;2022-07-31T05:28:52;21.10;99.90
51273;DHT22;37345;59.828;30.328;2022-07-31T05:31:19;21.20;99.90
51273;DHT22;37345;59.828;30.328;2022-07-31T05:33:46;21.50;99.90
51273;DHT22;37345;59.828;30.328;2022-07-31T05:36:14;21.00;99.90
51273;DHT22;37345;59.828;30.328;2022-07-31T05:38:40;20.80;99.90
51273;DHT22;37345;59.828;30.328;2022-07-31T05:41:06;20.80;99.90
51273;DHT22;37345;59.828;30.328;2022-07-31T05:43:32;21.60;99.90
51273;DHT22;37345;59.828;30.328;2022-07-31T05:45:58;23.00;99.90
51273;DHT22;37345;59.828;30.328;2022-07-31T05:48:24;23.60;99.90
51273;DHT22;37345;59.828;30.328;2022-07-31T05:50:50;23.50;99.90
51273;DHT22;37345;59.828;30.328;2022-07-31T05:53:17;23.60;99.90
51273;DHT22;37345;59.828;30.328;2022-07-31T05:55:44;23.60;99.90
51273;DHT22;37345;59.828;30.328;2022-07-31T05:58:11;23.50;99.90
51273;DHT22;37345;59.828;30.328;2022-07-31T06:00:38;24.60;99.90
51273;DHT22;37345;59.828;30.328;2022-07-31T06:03:04;25.20;99.90
51273;DHT22;37345;59.828;30.328;2022-07-31T06:05:30;24.20;99.90
51273;DHT22;37345;59.828;30.328;2022-07-31T06:07:57;24.20;99.90
51273;DHT22;37345;59.828;30.328;2022-07-31T06:10:23;24.90;99.90
51273;DHT22;37345;59.828;30.328;2022-07-31T06:12:49;25.20;99.90
51273;DHT22;37345;59.828;30.328;2022-07-31T06:15:18;25.30;99.90
51273;DHT22;37345;59.828;30.328;2022-07-31T06:17:45;25.30;99.90
51273;DHT22;37345;59.828;30.328;2022-07-31T06:20:12;25.30;99.90
51273;DHT22;37345;59.828;30.328;2022-07-31T06:22:39;24.70;99.90
51273;DHT22;37345;59.828;30.328;2022-07-31T06:25:06;23.90;99.90
51273;DHT22;37345;59.828;30.328;2022-07-31T06:27:35;23.30;99.90
51273;DHT22;37345;59.828;30.328;2022-07-31T06:30:02;23.90;99.90
51273;DHT22;37345;59.828;30.328;2022-07-31T06:32:31;24.30;99.90
51273;DHT22;37345;59.828;30.328;2022-07-31T06:34:56;23.60;99.90
51273;DHT22;37345;59.828;30.328;2022-07-31T06:37:22;22.80;99.90
51273;DHT22;37345;59.828;30.328;2022-07-31T06:39:48;22.70;99.90
51273;DHT22;37345;59.828;30.328;2022-07-31T06:42:32;22.20;99.90
51273;DHT22;37345;59.828;30.328;2022-07-31T06:44:58;22.00;99.90
51273;DHT22;37345;59.828;30.328;2022-07-31T06:47:24;21.80;99.90
51273;DHT22;37345;59.828;30.328;2022-07-31T06:49:51;21.40;99.90
51273;DHT22;37345;59.828;30.328;2022-07-31T06:52:17;21.40;99.90
51273;DHT22;37345;59.828;30.328;2022-07-31T06:54:44;20.90;99.90
51273;DHT22;37345;59.828;30.328;2022-07-31T06:57:10;20.50;99.90
51273;DHT22;37345;59.828;30.328;2022-07-31T06:59:39;20.40;99.90
51273;DHT22;37345;59.828;30.328;2022-07-31T07:02:05;20.20;99.90
51273;DHT22;37345;59.828;30.328;2022-07-31T07:04:31;19.70;99.90
51273;DHT22;37345;59.828;30.328;2022-07-31T07:06:56;19.20;99.90
51273;DHT22;37345;59.828;30.328;2022-07-31T07:09:22;18.70;99.90
51273;DHT22;37345;59.828;30.328;2022-07-31T07:11:51;18.70;99.90
51273;DHT22;37345;59.828;30.328;2022-07-31T07:14:19;18.30;99.90
51273;DHT22;37345;59.828;30.328;2022-07-31T07:16:45;18.20;99.90
51273;DHT22;37345;59.828;30.328;2022-07-31T07:19:11;18.30;99.90
51273;DHT22;37345;59.828;30.328;2022-07-31T07:21:37;18.40;99.90
51273;DHT22;37345;59.828;30.328;2022-07-31T07:24:03;18.60;99.90
51273;DHT22;37345;59.828;30.328;2022-07-31T07:26:32;18.60;99.90
51273;DHT22;37345;59.828;30.328;2022-07-31T07:28:58;18.90;99.90
51273;DHT22;37345;59.828;30.328;2022-07-31T07:31:24;18.70;99.90
51273;DHT22;37345;59.828;30.328;2022-07-31T07:33:50;18.50;99.90
51273;DHT22;37345;59.828;30.328;2022-07-31T07:36:16;18.60;99.90
51273;DHT22;37345;59.828;30.328;2022-07-31T07:38:42;18.70;99.90
51273;DHT22;37345;59.828;30.328;2022-07-31T07:41:08;18.70;99.90
51273;DHT22;37345;59.828;30.328;2022-07-31T07:43:33;18.80;99.90
51273;DHT22;37345;59.828;30.328;2022-07-31T07:45:59;19.10;99.90
51273;DHT22;37345;59.828;30.328;2022-07-31T07:48:25;19.00;99.90
51273;DHT22;37345;59.828;30.328;2022-07-31T07:50:51;19.20;99.90
51273;DHT22;37345;59.828;30.328;2022-07-31T07:53:16;19.30;99.90
51273;DHT22;37345;59.828;30.328;2022-07-31T07:55:42;19.00;99.90
51273;DHT22;37345;59.828;30.328;2022-07-31T07:58:08;19.10;99.90
51273;DHT22;37345;59.828;30.328;2022-07-31T08:00:34;19.00;99.90
51273;DHT22;37345;59.828;30.328;2022-07-31T08:03:03;18.80;99.90
51273;DHT22;37345;59.828;30.328;2022-07-31T08:05:35;19.20;99.90
51273;DHT22;37345;59.828;30.328;2022-07-31T08:08:01;19.30;99.90
51273;DHT22;37345;59.828;30.328;2022-07-31T08:10:26;18.90;99.90
51273;DHT22;37345;59.828;30.328;2022-07-31T08:12:52;19.00;99.90
51273;DHT22;37345;59.828;30.328;2022-07-31T08:15:19;18.90;99.90
51273;DHT22;37345;59.828;30.328;2022-07-31T08:17:45;19.30;99.90
51273;DHT22;37345;59.828;30.328;2022-07-31T08:20:19;19.40;99.90
51273;DHT22;37345;59.828;30.328;2022-07-31T08:22:45;19.40;99.90
51273;DHT22;37345;59.828;30.328;2022-07-31T08:25:11;18.90;99.90
51273;DHT22;37345;59.828;30.328;2022-07-31T08:27:37;18.40;99.90
51273;DHT22;37345;59.828;30.328;2022-07-31T08:30:03;18.10;99.90
51273;DHT22;37345;59.828;30.328;2022-07-31T08:32:32;18.10;99.90
51273;DHT22;37345;59.828;30.328;2022-07-31T08:34:58;18.10;99.90
51273;DHT22;37345;59.828;30.328;2022-07-31T08:37:24;18.10;99.90
51273;DHT22;37345;59.828;30.328;2022-07-31T08:39:50;18.30;99.90
51273;DHT22;37345;59.828;30.328;2022-07-31T08:42:16;18.50;99.90
51273;DHT22;37345;59.828;30.328;2022-07-31T08:44:43;18.50;99.90
51273;DHT22;37345;59.828;30.328;2022-07-31T08:47:15;18.70;99.90
51273;DHT22;37345;59.828;30.328;2022-07-31T08:49:49;18.70;99.90
51273;DHT22;37345;59.828;30.328;2022-07-31T08:52:21;18.70;99.90
51273;DHT22;37345;59.828;30.328;2022-07-31T08:54:53;18.80;99.90
51273;DHT22;37345;59.828;30.328;2022-07-31T08:57:22;18.80;99.90
51273;DHT22;37345;59.828;30.328;2022-07-31T08:59:48;18.80;99.90
51273;DHT22;37345;59.828;30.328;2022-07-31T09:02:17;18.60;99.90
51273;DHT22;37345;59.828;30.328;2022-07-31T09:04:43;18.60;99.90
51273;DHT22;37345;59.828;30.328;2022-07-31T09:07:13;18.80;99.90
51273;DHT22;37345;59.828;30.328;2022-07-31T09:09:43;18.90;99.90
51273;DHT22;37345;59.828;30.328;2022-07-31T09:12:09;18.80;99.90
51273;DHT22;37345;59.828;30.328;2022-07-31T09:14:35;18.90;99.90
51273;DHT22;37345;59.828;30.328;2022-07-31T09:17:03;18.80;99.90
51273;DHT22;37345;59.828;30.328;2022-07-31T09:19:40;18.70;99.90
51273;DHT22;37345;59.828;30.328;2022-07-31T09:22:06;18.80;99.90
51273;DHT22;37345;59.828;30.328;2022-07-31T09:24:43;19.00;99.90
51273;DHT22;37345;59.828;30.328;2022-07-31T09:27:11;19.10;99.90
51273;DHT22;37345;59.828;30.328;2022-07-31T09:29:43;19.00;99.90
51273;DHT22;37345;59.828;30.328;2022-07-31T09:32:19;19.10;99.90
51273;DHT22;37345;59.828;30.328;2022-07-31T09:34:49;19.20;99.90
51273;DHT22;37345;59.828;30.328;2022-07-31T09:37:18;16.80;99.90
51273;DHT22;37345;59.828;30.328;2022-07-31T09:39:52;19.20;99.90
51273;DHT22;37345;59.828;30.328;2022-07-31T09:42:22;19.10;99.90
51273;DHT22;37345;59.828;30.328;2022-07-31T09:44:59;18.90;99.90
51273;DHT22;37345;59.828;30.328;2022-07-31T09:47:29;18.80;99.90
51273;DHT22;37345;59.828;30.328;2022-07-31T09:49:58;18.70;99.90
51273;DHT22;37345;59.828;30.328;2022-07-31T09:52:25;18.70;99.90
51273;DHT22;37345;59.828;30.328;2022-07-31T09:57:33;19.80;99.90
51273;DHT22;37345;59.828;30.328;2022-07-31T10:00:04;18.70;99.90
51273;DHT22;37345;59.828;30.328;2022-07-31T10:02:31;18.70;99.90
51273;DHT22;37345;59.828;30.328;2022-07-31T10:05:02;18.70;99.90
51273;DHT22;37345;59.828;30.328;2022-07-31T10:07:31;18.80;99.90
51273;DHT22;37345;59.828;30.328;2022-07-31T10:10:01;18.80;99.90
51273;DHT22;37345;59.828;30.328;2022-07-31T10:12:30;18.90;99.90
51273;DHT22;37345;59.828;30.328;2022-07-31T10:15:03;19.00;99.90
51273;DHT22;37345;59.828;30.328;2022-07-31T10:17:32;19.00;99.90
51273;DHT22;37345;59.828;30.328;2022-07-31T10:20:03;19.30;99.90
51273;DHT22;37345;59.828;30.328;2022-07-31T10:22:33;19.50;99.90
51273;DHT22;37345;59.828;30.328;2022-07-31T10:25:03;19.50;99.90
51273;DHT22;37345;59.828;30.328;2022-07-31T10:27:31;19.50;99.90
51273;DHT22;37345;59.828;30.328;2022-07-31T10:29:58;19.40;99.90
51273;DHT22;37345;59.828;30.328;2022-07-31T10:32:24;19.60;99.90
51273;DHT22;37345;59.828;30.328;2022-07-31T10:34:51;19.90;99.90
51273;DHT22;37345;59.828;30.328;2022-07-31T10:40:43;20.30;99.90
51273;DHT22;37345;59.828;30.328;2022-07-31T10:45:50;20.40;99.90
51273;DHT22;37345;59.828;30.328;2022-07-31T10:48:21;20.40;99.90
51273;DHT22;37345;59.828;30.328;2022-07-31T10:51:09;20.70;99.90
51273;DHT22;37345;59.828;30.328;2022-07-31T10:53:37;20.70;99.90
51273;DHT22;37345;59.828;30.328;2022-07-31T10:56:08;20.90;99.90
51273;DHT22;37345;59.828;30.328;2022-07-31T10:58:51;21.10;99.90
51273;DHT22;37345;59.828;30.328;2022-07-31T11:01:17;21.00;99.90
51273;DHT22;37345;59.828;30.328;2022-07-31T11:03:57;21.00;99.90
51273;DHT22;37345;59.828;30.328;2022-07-31T11:06:40;20.80;99.90
51273;DHT22;37345;59.828;30.328;2022-07-31T11:09:06;21.10;99.90
51273;DHT22;37345;59.828;30.328;2022-07-31T11:11:34;21.60;99.90
51273;DHT22;37345;59.828;30.328;2022-07-31T11:14:02;21.70;99.90
51273;DHT22;37345;59.828;30.328;2022-07-31T11:16:30;21.90;99.90
51273;DHT22;37345;59.828;30.328;2022-07-31T11:19:04;24.00;99.90
51273;DHT22;37345;59.828;30.328;2022-07-31T11:21:36;22.20;99.90
51273;DHT22;37345;59.828;30.328;2022-07-31T11:24:22;22.30;99.90
51273;DHT22;37345;59.828;30.328;2022-07-31T11:26:49;22.40;99.90
51273;DHT22;37345;59.828;30.328;2022-07-31T11:29:39;22.40;99.90
51273;DHT22;37345;59.828;30.328;2022-07-31T11:32:16;22.00;99.90
51273;DHT22;37345;59.828;30.328;2022-07-31T11:34:47;22.00;99.90
51273;DHT22;37345;59.828;30.328;2022-07-31T11:37:29;21.50;99.90
51273;DHT22;37345;59.828;30.328;2022-07-31T11:39:56;21.40;99.90
51273;DHT22;37345;59.828;30.328;2022-07-31T11:42:24;21.80;99.90
51273;DHT22;37345;59.828;30.328;2022-07-31T11:44:52;21.80;99.90
51273;DHT22;37345;59.828;30.328;2022-07-31T11:47:19;22.00;99.90
51273;DHT22;37345;59.828;30.328;2022-07-31T11:49:44;22.10;99.90
51273;DHT22;37345;59.828;30.328;2022-07-31T11:52:11;21.90;99.90
51273;DHT22;37345;59.828;30.328;2022-07-31T11:54:39;22.00;99.90
51273;DHT22;37345;59.828;30.328;2022-07-31T11:57:06;22.10;99.90
51273;DHT22;37345;59.828;30.328;2022-07-31T11:59:34;22.00;99.90
51273;DHT22;37345;59.828;30.328;2022-07-31T12:02:08;21.20;99.90
51273;DHT22;37345;59.828;30.328;2022-07-31T12:04:35;22.10;99.90
51273;DHT22;37345;59.828;30.328;2022-07-31T12:07:03;22.00;99.90
51273;DHT22;37345;59.828;30.328;2022-07-31T12:09:30;22.10;99.90
51273;DHT22;37345;59.828;30.328;2022-07-31T12:11:57;22.30;99.90
51273;DHT22;37345;59.828;30.328;2022-07-31T12:14:31;22.50;99.90
51273;DHT22;37345;59.828;30.328;2022-07-31T12:17:00;22.40;99.90
51273;DHT22;37345;59.828;30.328;2022-07-31T12:19:36;22.30;99.90
51273;DHT22;37345;59.828;30.328;2022-07-31T12:22:14;22.60;99.90
51273;DHT22;37345;59.828;30.328;2022-07-31T12:24:41;22.20;99.90
51273;DHT22;37345;59.828;30.328;2022-07-31T12:27:17;22.10;99.90
51273;DHT22;37345;59.828;30.328;2022-07-31T12:29:43;22.40;99.90
51273;DHT22;37345;59.828;30.328;2022-07-31T12:32:09;22.40;99.90
51273;DHT22;37345;59.828;30.328;2022-07-31T12:34:40;22.60;99.90
51273;DHT22;37345;59.828;30.328;2022-07-31T12:37:13;22.20;99.90
51273;DHT22;37345;59.828;30.328;2022-07-31T12:42:30;22.30;99.90
51273;DHT22;37345;59.828;30.328;2022-07-31T12:44:57;22.10;99.90
51273;DHT22;37345;59.828;30.328;2022-07-31T12:47:25;22.00;99.90
51273;DHT22;37345;59.828;30.328;2022-07-31T12:49:55;21.90;99.90
51273;DHT22;37345;59.828;30.328;2022-07-31T12:52:20;22.00;99.90
51273;DHT22;37345;59.828;30.328;2022-07-31T12:54:50;21.90;99.90
51273;DHT22;37345;59.828;30.328;2022-07-31T12:57:16;21.80;99.90
51273;DHT22;37345;59.828;30.328;2022-07-31T12:59:42;21.90;99.90
51273;DHT22;37345;59.828;30.328;2022-07-31T13:02:11;22.00;99.90
51273;DHT22;37345;59.828;30.328;2022-07-31T13:04:37;22.50;99.90
51273;DHT22;37345;59.828;30.328;2022-07-31T13:07:03;22.00;99.90
51273;DHT22;37345;59.828;30.328;2022-07-31T13:09:29;21.90;99.90
51273;DHT22;37345;59.828;30.328;2022-07-31T13:11:55;21.90;99.90
51273;DHT22;37345;59.828;30.328;2022-07-31T13:14:21;22.00;99.90
51273;DHT22;37345;59.828;30.328;2022-07-31T13:16:51;22.20;99.90
51273;DHT22;37345;59.828;30.328;2022-07-31T13:19:18;22.10;99.90
51273;DHT22;37345;59.828;30.328;2022-07-31T13:21:46;22.20;99.90
51273;DHT22;37345;59.828;30.328;2022-07-31T13:24:14;22.10;99.90
51273;DHT22;37345;59.828;30.328;2022-07-31T13:26:40;21.90;99.90
51273;DHT22;37345;59.828;30.328;2022-07-31T13:29:09;21.90;99.90
51273;DHT22;37345;59.828;30.328;2022-07-31T13:31:34;21.80;99.90
51273;DHT22;37345;59.828;30.328;2022-07-31T13:34:03;21.80;99.90
51273;DHT22;37345;59.828;30.328;2022-07-31T13:36:29;21.90;99.90
51273;DHT22;37345;59.828;30.328;2022-07-31T13:38:58;22.00;99.90
51273;DHT22;37345;59.828;30.328;2022-07-31T13:41:24;22.10;99.90
51273;DHT22;37345;59.828;30.328;2022-07-31T13:43:54;22.30;99.90
51273;DHT22;37345;59.828;30.328;2022-07-31T13:46:21;22.00;99.90
51273;DHT22;37345;59.828;30.328;2022-07-31T13:48:59;21.60;99.90
51273;DHT22;37345;59.828;30.328;2022-07-31T13:51:25;21.60;99.90
51273;DHT22;37345;59.828;30.328;2022-07-31T13:53:51;21.70;99.90
51273;DHT22;37345;59.828;30.328;2022-07-31T13:56:18;21.80;99.90
51273;DHT22;37345;59.828;30.328;2022-07-31T13:58:47;21.80;99.90
51273;DHT22;37345;59.828;30.328;2022-07-31T14:01:13;21.90;99.90
51273;DHT22;37345;59.828;30.328;2022-07-31T14:03:39;21.70;99.90
51273;DHT22;37345;59.828;30.328;2022-07-31T14:06:05;21.80;99.90
51273;DHT22;37345;59.828;30.328;2022-07-31T14:08:30;21.80;99.90
51273;DHT22;37345;59.828;30.328;2022-07-31T14:10:57;21.80;99.90
51273;DHT22;37345;59.828;30.328;2022-07-31T14:13:23;21.60;99.90
51273;DHT22;37345;59.828;30.328;2022-07-31T14:15:52;21.60;99.90
51273;DHT22;37345;59.828;30.328;2022-07-31T14:18:18;21.60;99.90
51273;DHT22;37345;59.828;30.328;2022-07-31T14:20:45;21.70;99.90
51273;DHT22;37345;59.828;30.328;2022-07-31T14:23:11;21.60;99.90
51273;DHT22;37345;59.828;30.328;2022-07-31T14:25:40;21.60;99.90
51273;DHT22;37345;59.828;30.328;2022-07-31T14:28:06;21.70;99.90
51273;DHT22;37345;59.828;30.328;2022-07-31T14:30:33;21.70;99.90
51273;DHT22;37345;59.828;30.328;2022-07-31T14:32:59;21.80;99.90
51273;DHT22;37345;59.828;30.328;2022-07-31T14:35:25;22.00;99.90
51273;DHT22;37345;59.828;30.328;2022-07-31T14:37:51;21.90;99.90
51273;DHT22;37345;59.828;30.328;2022-07-31T14:40:30;24.30;99.90
51273;DHT22;37345;59.828;30.328;2022-07-31T14:43:11;21.90;99.90
51273;DHT22;37345;59.828;30.328;2022-07-31T14:45:38;22.20;99.90
51273;DHT22;37345;59.828;30.328;2022-07-31T14:48:04;22.10;99.90
51273;DHT22;37345;59.828;30.328;2022-07-31T14:50:30;22.00;99.90
51273;DHT22;37345;59.828;30.328;2022-07-31T14:52:58;22.00;99.90
51273;DHT22;37345;59.828;30.328;2022-07-31T14:55:24;21.80;99.90
51273;DHT22;37345;59.828;30.328;2022-07-31T14:57:53;22.70;99.90
51273;DHT22;37345;59.828;30.328;2022-07-31T15:00:19;21.70;99.90
51273;DHT22;37345;59.828;30.328;2022-07-31T15:02:45;21.60;99.90
51273;DHT22;37345;59.828;30.328;2022-07-31T15:05:14;21.80;99.90
51273;DHT22;37345;59.828;30.328;2022-07-31T15:07:39;21.80;99.90
51273;DHT22;37345;59.828;30.328;2022-07-31T15:10:07;21.60;99.90
51273;DHT22;37345;59.828;30.328;2022-07-31T15:12:33;21.50;99.90
51273;DHT22;37345;59.828;30.328;2022-07-31T15:14:59;21.60;99.90
51273;DHT22;37345;59.828;30.328;2022-07-31T15:17:25;21.70;99.90
51273;DHT22;37345;59.828;30.328;2022-07-31T15:19:51;21.50;99.90
51273;DHT22;37345;59.828;30.328;2022-07-31T15:22:22;21.80;99.90
51273;DHT22;37345;59.828;30.328;2022-07-31T15:24:48;21.80;99.90
51273;DHT22;37345;59.828;30.328;2022-07-31T15:27:14;21.70;99.90
51273;DHT22;37345;59.828;30.328;2022-07-31T15:29:39;21.70;99.90
51273;DHT22;37345;59.828;30.328;2022-07-31T15:32:06;21.60;99.90
51273;DHT22;37345;59.828;30.328;2022-07-31T15:34:32;21.60;99.90
51273;DHT22;37345;59.828;30.328;2022-07-31T15:37:00;21.50;99.90